createdAt,value
2023-05-07T00:01:18.938Z,101618.53
2023-05-07T00:03:49.122Z,101621.98
2023-05-07T00:06:17.795Z,101620.77
2023-05-07T00:08:46.641Z,101617.34
2023-05-07T00:11:15.090Z,101617.00
2023-05-07T00:13:43.853Z,101615.95
2023-05-07T00:16:12.521Z,101612.85
2023-05-07T00:18:41.654Z,101610.27
2023-05-07T00:21:10.504Z,101614.95
2023-05-07T00:23:39.016Z,101615.80
2023-05-07T00:26:07.333Z,101613.73
2023-05-07T00:28:36.184Z,101616.48
2023-05-07T00:31:04.493Z,101623.39
2023-05-07T00:33:32.804Z,101624.23
2023-05-07T00:36:03.196Z,101624.27
2023-05-07T00:39:01.464Z,101630.47
2023-05-07T00:41:29.883Z,101631.67
2023-05-07T00:43:58.374Z,101632.88
2023-05-07T00:46:27.413Z,101632.21
2023-05-07T00:48:56.366Z,101635.66
2023-05-07T00:51:28.730Z,101636.52
2023-05-07T00:53:57.312Z,101638.23
2023-05-07T00:56:26.724Z,101642.04
2023-05-07T00:58:56.240Z,101640.31
2023-05-07T01:01:24.694Z,101643.61
2023-05-07T01:03:53.154Z,101639.67
2023-05-07T01:06:24.798Z,101642.23
2023-05-07T01:08:57.087Z,101643.10
2023-05-07T01:11:26.971Z,101640.88
2023-05-07T01:13:56.138Z,101639.69
2023-05-07T01:16:24.549Z,101637.12
2023-05-07T01:18:53.547Z,101633.69
2023-05-07T01:21:27.874Z,101633.35
2023-05-07T01:23:56.377Z,101637.34
2023-05-07T01:26:25.213Z,101634.94
2023-05-07T01:28:53.615Z,101633.55
2023-05-07T01:31:22.487Z,101630.80
2023-05-07T01:33:53.510Z,101633.90
2023-05-07T01:36:27.304Z,101632.00
2023-05-07T01:39:21.582Z,101638.73
2023-05-07T01:41:50.878Z,101635.27
2023-05-07T01:44:20.797Z,101635.11
2023-05-07T01:46:49.717Z,101637.33
2023-05-07T01:49:19.644Z,101640.61
2023-05-07T01:51:48.006Z,101648.36
2023-05-07T01:54:16.830Z,101649.39
2023-05-07T01:56:46.042Z,101647.66
2023-05-07T01:59:14.882Z,101653.70
2023-05-07T02:01:43.739Z,101656.96
2023-05-07T02:04:12.511Z,101658.17
2023-05-07T02:06:41.481Z,101658.52
2023-05-07T02:09:10.353Z,101659.55
2023-05-07T02:11:38.696Z,101661.11
2023-05-07T02:14:07.636Z,101663.17
2023-05-07T02:16:36.067Z,101662.47
2023-05-07T02:19:04.839Z,101660.58
2023-05-07T02:21:33.225Z,101660.06
2023-05-07T02:24:01.672Z,101663.34
2023-05-07T02:26:30.488Z,101665.58
2023-05-07T02:28:58.840Z,101661.79
2023-05-07T02:31:27.205Z,101664.55
2023-05-07T02:33:56.062Z,101670.40
2023-05-07T02:36:24.416Z,101673.34
2023-05-07T02:39:18.257Z,101678.66
2023-05-07T02:41:47.928Z,101684.19
2023-05-07T02:44:16.824Z,101686.23
2023-05-07T02:46:45.679Z,101693.13
2023-05-07T02:49:13.988Z,101695.20
2023-05-07T02:51:42.303Z,101696.41
2023-05-07T02:54:10.736Z,101700.17
2023-05-07T02:56:39.109Z,101697.43
2023-05-07T02:59:07.413Z,101692.78
2023-05-07T03:01:36.077Z,101690.02
2023-05-07T03:04:05.004Z,101686.06
2023-05-07T03:06:33.486Z,101682.29
2023-05-07T03:09:01.809Z,101680.73
2023-05-07T03:11:31.893Z,101684.02
2023-05-07T03:14:00.338Z,101686.61
2023-05-07T03:16:29.698Z,101699.70
2023-05-07T03:18:58.175Z,101702.98
2023-05-07T03:21:27.722Z,101710.39
2023-05-07T03:23:56.218Z,101717.10
2023-05-07T03:26:24.447Z,101717.80
2023-05-07T03:28:53.371Z,101719.85
2023-05-07T03:31:21.978Z,101726.06
2023-05-07T03:33:56.159Z,101727.77
2023-05-07T03:36:26.542Z,101736.22
2023-05-07T03:38:55.028Z,101745.01
2023-05-07T03:41:23.493Z,101747.59
2023-05-07T03:43:52.008Z,101758.46
2023-05-07T03:46:20.779Z,101754.50
2023-05-07T03:48:49.192Z,101759.15
2023-05-07T03:51:18.036Z,101763.27
2023-05-07T03:53:46.351Z,101771.38
2023-05-07T03:56:14.695Z,101777.05
2023-05-07T03:58:42.976Z,101784.48
2023-05-07T04:01:11.399Z,101791.02
2023-05-07T04:03:39.955Z,101793.77
2023-05-07T04:06:08.562Z,101804.11
2023-05-07T04:08:37.450Z,101816.35
2023-05-07T04:11:05.967Z,101817.20
2023-05-07T04:13:34.891Z,101822.20
2023-05-07T04:16:05.291Z,101825.66
2023-05-07T04:18:33.649Z,101828.08
2023-05-07T04:21:02.054Z,101836.72
2023-05-07T04:23:30.574Z,101844.50
2023-05-07T04:25:59.342Z,101840.02
2023-05-07T04:28:27.635Z,101841.05
2023-05-07T04:30:56.316Z,101840.55
2023-05-07T04:33:25.226Z,101841.23
2023-05-07T04:35:53.693Z,101844.01
2023-05-07T04:38:47.688Z,101852.11
2023-05-07T04:41:16.443Z,101863.48
2023-05-07T04:43:45.302Z,101875.00
2023-05-07T04:46:13.849Z,101880.46
2023-05-07T04:48:42.209Z,101895.59
2023-05-07T04:51:11.437Z,101907.48
2023-05-07T04:53:41.270Z,101918.34
2023-05-07T04:56:10.473Z,101920.08
2023-05-07T04:58:39.051Z,101919.41
2023-05-07T05:01:08.334Z,101916.67
2023-05-07T05:03:36.763Z,101925.16
2023-05-07T05:06:06.107Z,101929.63
2023-05-07T05:08:34.466Z,101930.95
2023-05-07T05:11:04.029Z,101941.27
2023-05-07T05:13:32.367Z,101954.16
2023-05-07T05:16:01.538Z,101963.95
2023-05-07T05:18:30.558Z,101975.27
2023-05-07T05:20:59.004Z,101982.45
2023-05-07T05:23:27.406Z,101991.16
2023-05-07T05:25:59.794Z,101999.64
2023-05-07T05:28:29.240Z,102009.67
2023-05-07T05:30:58.199Z,102024.75
2023-05-07T05:33:26.969Z,102032.28
2023-05-07T05:35:55.978Z,102032.59
2023-05-07T05:38:41.228Z,102040.73
2023-05-07T05:41:09.825Z,102059.84
2023-05-07T05:43:38.681Z,102073.64
2023-05-07T05:46:07.594Z,102091.20
2023-05-07T05:48:36.122Z,102103.33
2023-05-07T05:51:05.111Z,102107.05
2023-05-07T05:53:33.985Z,102120.05
2023-05-07T05:56:02.848Z,102126.84
2023-05-07T05:58:31.401Z,102128.65
2023-05-07T06:01:00.013Z,102131.23
2023-05-07T06:03:28.537Z,102125.52
2023-05-07T06:05:57.403Z,102125.02
2023-05-07T06:08:25.750Z,102129.83
2023-05-07T06:10:54.048Z,102152.36
2023-05-07T06:13:22.669Z,102150.48
2023-05-07T06:15:51.761Z,102154.64
2023-05-07T06:18:20.261Z,102169.77
2023-05-07T06:20:49.009Z,102178.15
2023-05-07T06:23:18.194Z,102182.92
2023-05-07T06:25:51.816Z,102183.02
2023-05-07T06:28:20.361Z,102203.70
2023-05-07T06:30:50.323Z,102224.04
2023-05-07T06:33:18.652Z,102215.91
2023-05-07T06:35:47.503Z,102195.17
2023-05-07T06:38:16.258Z,102202.39
2023-05-07T06:40:44.739Z,102200.95
2023-05-07T06:43:13.287Z,102177.62
2023-05-07T06:45:41.700Z,102137.67
2023-05-07T06:48:10.358Z,102137.51
2023-05-07T06:50:39.197Z,102146.35
2023-05-07T06:53:07.845Z,102154.80
2023-05-07T06:55:36.329Z,102157.88
2023-05-07T06:58:04.957Z,102100.48
2023-05-07T07:00:33.256Z,102061.65
2023-05-07T07:03:01.903Z,102042.90
2023-05-07T07:05:30.382Z,102026.45
2023-05-07T07:07:59.452Z,102006.57
2023-05-07T07:10:27.788Z,101969.44
2023-05-07T07:12:56.380Z,101945.86
2023-05-07T07:15:26.405Z,101927.34
2023-05-07T07:17:55.283Z,101908.41
2023-05-07T07:20:24.229Z,101902.46
2023-05-07T07:22:53.165Z,101908.94
2023-05-07T07:25:21.686Z,101924.00
2023-05-07T07:27:50.880Z,101938.77
2023-05-07T07:30:19.416Z,101948.07
2023-05-07T07:32:48.486Z,101937.20
2023-05-07T07:35:17.413Z,101929.13
2023-05-07T07:37:46.823Z,101902.39
2023-05-07T07:40:15.625Z,101876.85
2023-05-07T07:42:44.058Z,101864.02
2023-05-07T07:45:13.432Z,101850.00
2023-05-07T07:47:42.480Z,101850.45
2023-05-07T07:50:12.382Z,101846.05
2023-05-07T07:52:45.408Z,101853.19
2023-05-07T07:55:14.098Z,101851.80
2023-05-07T07:57:42.653Z,101854.52
2023-05-07T08:00:11.790Z,101871.95
2023-05-07T08:02:40.983Z,101874.50
2023-05-07T08:05:09.800Z,101864.02
2023-05-07T08:07:38.327Z,101844.88
2023-05-07T08:10:06.987Z,101830.04
2023-05-07T08:12:36.093Z,101813.88
2023-05-07T08:15:05.081Z,101804.88
2023-05-07T08:17:34.987Z,101808.86
2023-05-07T08:20:03.692Z,101793.00
2023-05-07T08:22:32.088Z,101784.66
2023-05-07T08:25:01.717Z,101772.62
2023-05-07T08:27:30.540Z,101759.06
2023-05-07T08:30:00.238Z,101749.95
2023-05-07T08:32:28.981Z,101744.09
2023-05-07T08:34:58.169Z,101733.80
2023-05-07T08:37:29.270Z,101734.67
2023-05-07T08:39:58.505Z,101740.28
2023-05-07T08:42:30.062Z,101737.91
2023-05-07T08:45:01.299Z,101746.14
2023-05-07T08:47:36.154Z,101748.15
2023-05-07T08:50:06.381Z,101736.54
2023-05-07T08:52:36.609Z,101741.52
2023-05-07T08:55:07.116Z,101732.66
2023-05-07T08:57:36.695Z,101726.20
2023-05-07T09:00:05.784Z,101728.75
2023-05-07T09:02:36.593Z,101727.55
2023-05-07T09:05:05.902Z,101724.33
2023-05-07T09:07:34.297Z,101729.66
2023-05-07T09:10:05.560Z,101731.13
2023-05-07T09:12:34.047Z,101726.17
2023-05-07T09:15:04.248Z,101724.27
2023-05-07T09:17:33.089Z,101729.10
2023-05-07T09:20:10.631Z,101735.92
2023-05-07T09:22:40.134Z,101739.04
2023-05-07T09:25:09.731Z,101734.34
2023-05-07T09:27:38.915Z,101740.27
2023-05-07T09:30:11.302Z,101745.02
2023-05-07T09:32:39.692Z,101740.70
2023-05-07T09:35:17.333Z,101739.74
2023-05-07T09:38:02.433Z,101743.42
2023-05-07T09:40:32.596Z,101743.40
2023-05-07T09:43:15.116Z,101741.08
2023-05-07T09:45:44.259Z,101725.39
2023-05-07T09:48:16.070Z,101730.44
2023-05-07T09:50:52.044Z,101729.98
2023-05-07T09:53:21.248Z,101730.84
2023-05-07T09:55:50.169Z,101744.27
2023-05-07T09:58:20.667Z,101757.70
2023-05-07T10:00:51.132Z,101755.40
2023-05-07T10:03:22.375Z,101754.11
2023-05-07T10:05:52.272Z,101757.20
2023-05-07T10:08:21.434Z,101764.65
2023-05-07T10:10:51.159Z,101769.90
2023-05-07T10:13:21.821Z,101772.38
2023-05-07T10:15:51.855Z,101779.35
2023-05-07T10:18:24.909Z,101786.84
2023-05-07T10:20:55.676Z,101795.31
2023-05-07T10:23:26.232Z,101792.08
2023-05-07T10:26:00.616Z,101782.21
2023-05-07T10:28:33.147Z,101774.31
2023-05-07T10:31:23.573Z,101765.13
2023-05-07T10:33:56.147Z,101760.67
2023-05-07T10:36:26.429Z,101747.63
2023-05-07T10:38:56.311Z,101741.57
2023-05-07T10:41:25.532Z,101734.27
2023-05-07T10:43:54.132Z,101735.18
2023-05-07T10:46:23.976Z,101738.67
2023-05-07T10:49:04.648Z,101746.99
2023-05-07T10:51:34.909Z,101771.45
2023-05-07T10:54:22.057Z,101775.94
2023-05-07T10:56:52.404Z,101776.00
2023-05-07T10:59:28.594Z,101766.98
2023-05-07T11:02:05.639Z,101769.18
2023-05-07T11:04:36.353Z,101777.25
2023-05-07T11:10:06.000Z,101780.73
2023-05-07T11:12:41.528Z,101807.58
2023-05-07T11:15:12.976Z,101806.53
2023-05-07T11:17:54.489Z,101779.64
2023-05-07T11:20:53.891Z,101766.06
2023-05-07T11:23:42.066Z,101768.83
2023-05-07T11:26:14.763Z,101807.10
2023-05-07T11:28:45.063Z,101815.05
2023-05-07T11:31:13.421Z,101799.86
2023-05-07T11:33:42.394Z,101781.73
2023-05-07T11:36:11.285Z,101765.33
2023-05-07T11:38:40.266Z,101747.39
2023-05-07T11:41:09.681Z,101732.92
2023-05-07T11:43:38.230Z,101722.56
2023-05-07T11:46:12.062Z,101709.55
2023-05-07T11:48:42.678Z,101707.50
2023-05-07T11:51:14.263Z,101708.48
2023-05-07T11:53:45.466Z,101704.52
2023-05-07T11:56:15.926Z,101702.56
2023-05-07T11:58:46.317Z,101699.05
2023-05-07T12:01:16.516Z,101691.31
2023-05-07T12:03:47.602Z,101690.84
2023-05-07T12:06:18.305Z,101685.77
2023-05-07T12:08:48.370Z,101695.98
2023-05-07T12:11:24.526Z,101702.02
2023-05-07T12:13:58.732Z,101699.04
2023-05-07T12:16:29.029Z,101701.59
2023-05-07T12:19:00.180Z,101691.89
2023-05-07T12:21:28.947Z,101685.14
2023-05-07T12:23:57.946Z,101698.78
2023-05-07T12:26:26.370Z,101694.58
2023-05-07T12:28:54.816Z,101690.23
2023-05-07T12:31:23.217Z,101687.11
2023-05-07T12:33:52.250Z,101688.11
2023-05-07T12:36:22.371Z,101687.86
2023-05-07T12:38:57.035Z,101680.42
2023-05-07T12:41:28.464Z,101679.80
2023-05-07T12:43:59.027Z,101676.55
2023-05-07T12:46:27.415Z,101663.29
2023-05-07T12:48:55.839Z,101662.48
2023-05-07T12:51:24.728Z,101659.39
2023-05-07T12:53:58.212Z,101648.36
2023-05-07T12:56:26.708Z,101639.20
2023-05-07T12:58:59.163Z,101638.95
2023-05-07T13:01:32.470Z,101642.73
2023-05-07T13:04:10.092Z,101646.23
2023-05-07T13:06:38.656Z,101639.71
2023-05-07T13:09:07.015Z,101652.00
2023-05-07T13:11:35.810Z,101664.75
2023-05-07T13:14:04.319Z,101666.90
2023-05-07T13:16:32.670Z,101666.97
2023-05-07T13:19:01.572Z,101676.55
2023-05-07T13:21:33.232Z,101658.70
2023-05-07T13:24:01.494Z,101631.95
2023-05-07T13:26:32.576Z,101606.65
2023-05-07T13:29:00.853Z,101597.46
2023-05-07T13:31:29.153Z,101593.02
2023-05-07T13:34:01.793Z,101587.17
2023-05-07T13:36:30.504Z,101587.20
2023-05-07T13:39:00.853Z,101592.17
2023-05-07T13:41:29.374Z,101586.81
2023-05-07T13:43:58.186Z,101586.10
2023-05-07T13:46:26.509Z,101587.45
2023-05-07T13:48:54.859Z,101591.11
2023-05-07T13:51:23.297Z,101588.18
2023-05-07T13:53:51.747Z,101587.39
2023-05-07T13:56:20.118Z,101588.77
2023-05-07T13:58:59.604Z,101592.36
2023-05-07T14:01:29.277Z,101584.55
2023-05-07T14:04:01.144Z,101579.48
2023-05-07T14:06:29.504Z,101580.38
2023-05-07T14:08:59.428Z,101581.88
2023-05-07T14:11:27.781Z,101581.23
2023-05-07T14:13:58.152Z,101587.19
2023-05-07T14:16:26.621Z,101580.77
2023-05-07T14:18:57.952Z,101581.14
2023-05-07T14:21:27.446Z,101582.63
2023-05-07T14:23:57.835Z,101582.48
2023-05-07T14:26:28.237Z,101578.84
2023-05-07T14:28:59.502Z,101570.35
2023-05-07T14:31:28.224Z,101570.45
2023-05-07T14:33:59.232Z,101564.57
2023-05-07T14:36:28.469Z,101558.09
2023-05-07T14:39:21.029Z,101563.39
2023-05-07T14:41:49.449Z,101569.20
2023-05-07T14:44:17.810Z,101565.13
2023-05-07T14:46:46.725Z,101578.73
2023-05-07T14:49:19.621Z,101577.63
2023-05-07T14:51:48.642Z,101583.27
2023-05-07T14:54:17.584Z,101578.01
2023-05-07T14:56:46.168Z,101569.45
2023-05-07T14:59:17.287Z,101572.95
2023-05-07T15:01:46.928Z,101566.08
2023-05-07T15:04:15.840Z,101567.59
2023-05-07T15:06:44.378Z,101574.33
2023-05-07T15:09:12.950Z,101572.63
2023-05-07T15:11:41.980Z,101581.39
2023-05-07T15:14:10.441Z,101580.50
2023-05-07T15:16:39.529Z,101574.87
2023-05-07T15:19:08.686Z,101574.41
2023-05-07T15:21:37.881Z,101574.52
2023-05-07T15:24:07.214Z,101580.75
2023-05-07T15:26:35.844Z,101577.29
2023-05-07T15:29:09.302Z,101581.05
2023-05-07T15:31:40.308Z,101575.73
2023-05-07T15:34:08.840Z,101576.66
2023-05-07T15:36:37.302Z,101575.33
2023-05-07T15:39:08.713Z,101577.77
2023-05-07T15:41:38.316Z,101582.72
2023-05-07T15:44:07.558Z,101583.13
2023-05-07T15:46:36.035Z,101578.34
2023-05-07T15:49:08.782Z,101577.52
2023-05-07T15:51:37.420Z,101582.62
2023-05-07T15:54:06.727Z,101575.67
2023-05-07T15:56:36.486Z,101576.15
2023-05-07T15:59:04.870Z,101571.59
2023-05-07T16:01:33.893Z,101572.06
2023-05-07T16:04:02.599Z,101571.89
2023-05-07T16:06:31.766Z,101570.88
2023-05-07T16:09:01.156Z,101569.63
2023-05-07T16:11:34.619Z,101572.36
2023-05-07T16:14:03.675Z,101581.54
2023-05-07T16:16:36.437Z,101580.02
2023-05-07T16:19:04.912Z,101580.20
2023-05-07T16:21:33.739Z,101577.40
2023-05-07T16:24:03.083Z,101580.31
2023-05-07T16:26:32.073Z,101575.80
2023-05-07T16:29:02.073Z,101573.58
2023-05-07T16:31:30.461Z,101571.55
2023-05-07T16:33:58.924Z,101569.08
2023-05-07T16:36:30.160Z,101568.55
2023-05-07T16:39:25.513Z,101566.44
2023-05-07T16:41:53.839Z,101569.48
2023-05-07T16:44:22.283Z,101569.67
2023-05-07T16:46:51.453Z,101571.73
2023-05-07T16:49:19.802Z,101575.17
2023-05-07T16:51:49.017Z,101576.26
2023-05-07T16:54:17.837Z,101574.67
2023-05-07T16:56:46.174Z,101578.91
2023-05-07T16:59:15.038Z,101582.45
2023-05-07T17:01:43.519Z,101580.80
2023-05-07T17:04:12.204Z,101579.36
2023-05-07T17:06:40.754Z,101580.26
2023-05-07T17:09:09.807Z,101581.42
2023-05-07T17:11:38.717Z,101583.58
2023-05-07T17:14:07.069Z,101586.35
2023-05-07T17:16:35.661Z,101586.57
2023-05-07T17:19:04.726Z,101589.89
2023-05-07T17:21:33.268Z,101590.47
2023-05-07T17:24:01.623Z,101590.83
2023-05-07T17:26:29.977Z,101588.48
2023-05-07T17:28:58.350Z,101587.70
2023-05-07T17:31:27.163Z,101588.38
2023-05-07T17:33:56.037Z,101593.59
2023-05-07T17:36:24.326Z,101595.17
2023-05-07T17:39:17.154Z,101593.71
2023-05-07T17:41:45.406Z,101597.22
2023-05-07T17:44:14.335Z,101598.04
2023-05-07T17:46:42.681Z,101600.39
2023-05-07T17:49:11.467Z,101603.27
2023-05-07T17:51:52.539Z,101599.66
2023-05-07T17:54:23.232Z,101598.27
2023-05-07T17:56:52.230Z,101600.57
2023-05-07T17:59:21.182Z,101605.41
2023-05-07T18:01:49.983Z,101609.73
2023-05-07T18:04:23.009Z,101614.82
2023-05-07T18:06:52.230Z,101615.70
2023-05-07T18:09:21.859Z,101616.94
2023-05-07T18:11:51.835Z,101617.51
2023-05-07T18:14:24.530Z,101617.20
2023-05-07T18:16:53.183Z,101619.38
2023-05-07T18:19:21.699Z,101622.17
2023-05-07T18:21:50.391Z,101618.08
2023-05-07T18:24:20.661Z,101621.38
2023-05-07T18:26:50.011Z,101621.38
2023-05-07T18:29:18.671Z,101626.42
2023-05-07T18:31:47.551Z,101630.02
2023-05-07T18:34:16.499Z,101635.55
2023-05-07T18:36:45.467Z,101639.87
2023-05-07T18:39:39.848Z,101641.04
2023-05-07T18:42:09.585Z,101645.33
2023-05-07T18:44:38.832Z,101645.89
2023-05-07T18:47:08.989Z,101645.59
2023-05-07T18:49:38.755Z,101650.48
2023-05-07T18:52:08.985Z,101655.71
2023-05-07T18:54:38.067Z,101656.73
2023-05-07T18:57:07.057Z,101656.40
2023-05-07T18:59:36.180Z,101657.38
2023-05-07T19:02:05.446Z,101665.80
2023-05-07T19:04:34.820Z,101665.27
2023-05-07T19:07:03.748Z,101670.23
2023-05-07T19:09:33.410Z,101672.97
2023-05-07T19:12:02.680Z,101675.54
2023-05-07T19:14:31.337Z,101680.65
2023-05-07T19:17:00.469Z,101680.59
2023-05-07T19:19:29.507Z,101683.95
2023-05-07T19:21:58.409Z,101686.95
2023-05-07T19:24:27.073Z,101690.61
2023-05-07T19:26:56.583Z,101689.43
2023-05-07T19:29:26.180Z,101694.63
2023-05-07T19:31:55.892Z,101696.19
2023-05-07T19:34:26.747Z,101699.80
2023-05-07T19:36:56.019Z,101700.67
2023-05-07T19:39:37.978Z,101703.09
2023-05-07T19:42:06.839Z,101706.20
2023-05-07T19:44:36.759Z,101709.17
2023-05-07T19:47:07.669Z,101711.98
2023-05-07T19:49:40.937Z,101714.08
2023-05-07T19:52:09.709Z,101719.11
2023-05-07T19:54:42.852Z,101715.52
2023-05-07T19:57:13.911Z,101718.98
2023-05-07T19:59:42.991Z,101720.58
2023-05-07T20:02:13.159Z,101729.91
2023-05-07T20:04:41.730Z,101732.52
2023-05-07T20:07:12.121Z,101732.04
2023-05-07T20:09:40.769Z,101731.71
2023-05-07T20:12:09.587Z,101735.70
2023-05-07T20:14:38.042Z,101733.80
2023-05-07T20:17:06.516Z,101738.98
2023-05-07T20:19:35.090Z,101740.00
2023-05-07T20:22:03.680Z,101739.51
2023-05-07T20:24:38.595Z,101738.48
2023-05-07T20:27:06.997Z,101745.55
2023-05-07T20:29:35.565Z,101745.89
2023-05-07T20:32:04.065Z,101747.10
2023-05-07T20:34:32.576Z,101747.09
2023-05-07T20:37:02.126Z,101747.95
2023-05-07T20:39:30.647Z,101749.83
2023-05-07T20:42:00.175Z,101752.23
2023-05-07T20:44:30.941Z,101751.70
2023-05-07T20:46:59.292Z,101751.66
2023-05-07T20:49:27.734Z,101756.63
2023-05-07T20:51:57.000Z,101753.33
2023-05-07T20:54:28.439Z,101757.78
2023-05-07T20:56:58.428Z,101763.95
2023-05-07T20:59:27.330Z,101763.05
2023-05-07T21:01:57.172Z,101764.42
2023-05-07T21:04:25.548Z,101767.51
2023-05-07T21:06:53.961Z,101767.83
2023-05-07T21:09:22.394Z,101774.51
2023-05-07T21:11:50.975Z,101774.12
2023-05-07T21:14:20.659Z,101774.23
2023-05-07T21:16:49.058Z,101776.42
2023-05-07T21:19:17.607Z,101782.39
2023-05-07T21:21:46.000Z,101785.44
2023-05-07T21:24:14.435Z,101787.96
2023-05-07T21:26:42.791Z,101792.41
2023-05-07T21:29:11.301Z,101793.25
2023-05-07T21:31:39.710Z,101796.47
2023-05-07T21:34:08.300Z,101796.41
2023-05-07T21:36:36.676Z,101797.75
2023-05-07T21:39:05.322Z,101797.34
2023-05-07T21:41:33.797Z,101799.37
2023-05-07T21:44:03.096Z,101801.19
2023-05-07T21:46:31.711Z,101808.88
2023-05-07T21:49:00.207Z,101807.98
2023-05-07T21:51:28.683Z,101809.14
2023-05-07T21:53:57.057Z,101813.73
2023-05-07T21:56:25.545Z,101813.52
2023-05-07T21:58:53.955Z,101816.59
2023-05-07T22:01:23.173Z,101815.17
2023-05-07T22:03:52.212Z,101816.83
2023-05-07T22:06:22.709Z,101817.45
2023-05-07T22:08:51.416Z,101818.93
2023-05-07T22:11:19.907Z,101825.05
2023-05-07T22:13:49.529Z,101825.15
2023-05-07T22:16:17.940Z,101825.10
2023-05-07T22:18:46.401Z,101824.52
2023-05-07T22:21:14.866Z,101828.41
2023-05-07T22:23:43.282Z,101826.12
2023-05-07T22:26:13.332Z,101827.78
2023-05-07T22:28:41.731Z,101831.52
2023-05-07T22:31:10.065Z,101832.00
2023-05-07T22:33:38.621Z,101832.65
2023-05-07T22:36:08.157Z,101835.20
2023-05-07T22:39:01.777Z,101834.63
2023-05-07T22:41:30.171Z,101833.19
2023-05-07T22:43:59.358Z,101834.88
2023-05-07T22:46:27.973Z,101834.30
2023-05-07T22:48:56.449Z,101834.73
2023-05-07T22:51:24.864Z,101835.20
2023-05-07T22:53:53.264Z,101835.83
2023-05-07T22:56:21.732Z,101835.30
2023-05-07T22:58:50.175Z,101834.77
2023-05-07T23:01:19.323Z,101835.41
2023-05-07T23:03:47.855Z,101836.07
2023-05-07T23:06:16.387Z,101834.16
2023-05-07T23:08:44.782Z,101833.95
2023-05-07T23:11:13.269Z,101834.73
2023-05-07T23:13:41.700Z,101834.52
2023-05-07T23:16:10.208Z,101837.02
2023-05-07T23:18:38.645Z,101836.60
2023-05-07T23:21:07.165Z,101838.61
2023-05-07T23:23:36.053Z,101837.70
2023-05-07T23:26:04.379Z,101841.57
2023-05-07T23:28:32.770Z,101839.98
2023-05-07T23:31:01.247Z,101839.93
2023-05-07T23:33:29.770Z,101840.23
2023-05-07T23:36:02.537Z,101842.41
2023-05-07T23:38:56.458Z,101842.21
2023-05-07T23:41:24.902Z,101839.95
2023-05-07T23:43:53.542Z,101837.55
2023-05-07T23:46:22.147Z,101836.78
2023-05-07T23:48:50.620Z,101839.64
2023-05-07T23:51:18.981Z,101839.07
2023-05-07T23:53:47.398Z,101839.70
2023-05-07T23:56:15.820Z,101841.35
2023-05-07T23:58:44.122Z,101839.36
